createdAt,value
2022-08-30T00:03:25.328Z,27.84
2022-08-30T00:10:12.965Z,27.78
2022-08-30T00:17:01.004Z,28.45
2022-08-30T00:23:46.567Z,28.28
2022-08-30T00:30:32.600Z,28.68
2022-08-30T00:37:21.923Z,28.37
2022-08-30T00:44:08.454Z,28.48
2022-08-30T00:50:59.198Z,28.80
2022-08-30T00:57:50.545Z,29.32
2022-08-30T01:04:37.593Z,29.41
2022-08-30T01:11:26.965Z,29.59
2022-08-30T01:18:17.479Z,29.62
2022-08-30T01:25:08.224Z,29.79
2022-08-30T01:31:54.823Z,29.82
2022-08-30T01:38:49.000Z,30.15
2022-08-30T01:45:37.541Z,29.82
2022-08-30T01:52:23.337Z,30.21
2022-08-30T01:59:09.632Z,29.97
2022-08-30T02:05:57.701Z,30.09
2022-08-30T02:12:43.595Z,30.11
2022-08-30T02:19:28.887Z,29.94
2022-08-30T02:26:17.647Z,30.72
2022-08-30T02:33:03.692Z,31.04
2022-08-30T02:39:49.170Z,30.79
2022-08-30T03:00:26.086Z,32.44
2022-08-30T03:07:12.795Z,32.48
2022-08-30T03:13:58.379Z,32.55
2022-08-30T03:20:54.072Z,33.02
2022-08-30T03:27:40.965Z,33.43
2022-08-30T03:34:27.817Z,33.44
2022-08-30T03:41:17.285Z,33.73
2022-08-30T03:48:03.488Z,33.97
2022-08-30T03:54:49.269Z,34.03
2022-08-30T04:01:37.318Z,33.77
2022-08-30T04:08:23.238Z,34.01
2022-08-30T04:15:11.300Z,34.21
2022-08-30T04:21:59.643Z,34.36
2022-08-30T04:28:45.186Z,34.06
2022-08-30T04:35:31.931Z,34.40
2022-08-30T04:42:20.513Z,34.27
2022-08-30T04:49:08.189Z,34.79
2022-08-30T04:55:54.097Z,34.71
2022-08-30T05:02:43.743Z,34.80
2022-08-30T05:09:29.259Z,35.27
2022-08-30T05:16:18.108Z,35.04
2022-08-30T05:23:07.143Z,35.41
2022-08-30T05:29:52.622Z,35.21
2022-08-30T05:36:41.716Z,35.56
2022-08-30T05:43:30.069Z,35.82
2022-08-30T05:50:15.631Z,35.97
2022-08-30T05:57:01.146Z,35.63
2022-08-30T06:03:49.992Z,35.74
2022-08-30T06:10:35.396Z,36.00
2022-08-30T06:17:21.076Z,35.57
2022-08-30T06:24:13.684Z,35.65
2022-08-30T06:30:59.253Z,35.58
2022-08-30T06:37:44.752Z,35.60
2022-08-30T06:44:32.944Z,35.44
2022-08-30T06:51:22.016Z,35.46
2022-08-30T06:58:08.614Z,35.26
2022-08-30T07:04:56.659Z,35.13
2022-08-30T07:11:42.173Z,34.95
2022-08-30T07:18:49.260Z,34.88
2022-08-30T07:25:38.618Z,35.42
2022-08-30T07:32:24.128Z,34.95
2022-08-30T07:39:11.052Z,34.74
2022-08-30T07:46:00.456Z,35.07
2022-08-30T07:52:46.028Z,34.80
2022-08-30T07:59:34.213Z,34.87
2022-08-30T08:06:27.669Z,34.44
2022-08-30T08:13:18.964Z,34.58
2022-08-30T08:20:08.007Z,34.13
2022-08-30T08:26:56.537Z,34.20
2022-08-30T08:33:41.996Z,34.09
2022-08-30T08:40:27.869Z,33.47
2022-08-30T08:47:25.024Z,33.79
2022-08-30T08:54:18.199Z,33.31
2022-08-30T09:01:05.258Z,33.06
2022-08-30T09:08:00.882Z,32.95
2022-08-30T09:14:51.611Z,33.11
2022-08-30T09:21:41.317Z,32.71
2022-08-30T09:28:32.737Z,32.31
2022-08-30T09:35:25.942Z,32.01
2022-08-30T09:42:23.795Z,31.95
2022-08-30T09:49:32.803Z,31.38
2022-08-30T09:56:30.657Z,30.94
2022-08-30T10:03:36.314Z,30.34
2022-08-30T10:10:41.781Z,30.39
2022-08-30T10:17:44.890Z,29.92
2022-08-30T10:24:36.259Z,29.51
2022-08-30T10:31:35.169Z,29.32
2022-08-30T10:38:27.422Z,28.77
2022-08-30T10:45:18.877Z,29.04
2022-08-30T10:59:29.996Z,28.19
2022-08-30T11:06:27.439Z,27.93
2022-08-30T11:13:23.075Z,27.53
2022-08-30T11:20:26.418Z,26.92
2022-08-30T11:27:12.791Z,26.93
2022-08-30T11:34:02.780Z,26.32
2022-08-30T11:40:55.088Z,26.58
2022-08-30T11:47:45.291Z,26.05
2022-08-30T11:54:43.479Z,26.03
2022-08-30T12:01:51.040Z,25.35
2022-08-30T12:09:02.350Z,25.59
2022-08-30T12:16:07.808Z,25.18
2022-08-30T12:22:56.865Z,24.94
2022-08-30T12:29:54.843Z,24.68
2022-08-30T12:36:53.748Z,24.40
2022-08-30T12:43:42.457Z,23.93
2022-08-30T12:50:33.328Z,24.03
2022-08-30T12:57:40.186Z,23.58
2022-08-30T13:04:31.676Z,23.34
2022-08-30T13:11:29.777Z,23.15
2022-08-30T13:18:27.585Z,23.01
2022-08-30T13:25:14.928Z,22.86
2022-08-30T13:32:00.971Z,22.72
2022-08-30T13:38:50.136Z,22.48
2022-08-30T13:45:43.202Z,22.82
2022-08-30T13:52:28.908Z,22.18
2022-08-30T13:59:18.222Z,22.10
2022-08-30T14:06:29.472Z,22.19
2022-08-30T14:13:11.885Z,22.38
2022-08-30T14:20:02.504Z,22.07
2022-08-30T14:26:51.386Z,21.85
2022-08-30T14:33:36.920Z,21.60
2022-08-30T14:40:25.082Z,21.86
2022-08-30T14:47:11.317Z,21.89
2022-08-30T14:53:57.803Z,21.40
2022-08-30T15:00:45.942Z,21.79
2022-08-30T15:07:31.470Z,21.57
2022-08-30T15:14:17.339Z,21.52
2022-08-30T15:21:05.461Z,21.71
2022-08-30T15:27:51.871Z,21.59
2022-08-30T15:34:37.737Z,21.56
2022-08-30T15:41:26.940Z,21.42
2022-08-30T15:48:14.357Z,21.36
2022-08-30T15:55:00.020Z,21.21
2022-08-30T16:01:49.472Z,21.29
2022-08-30T16:08:35.480Z,21.33
2022-08-30T16:15:21.034Z,20.95
2022-08-30T16:22:11.308Z,21.14
2022-08-30T16:28:58.260Z,21.34
2022-08-30T16:35:44.111Z,20.90
2022-08-30T16:42:32.732Z,21.54
2022-08-30T16:49:18.431Z,21.31
2022-08-30T16:56:09.733Z,21.12
2022-08-30T17:02:59.212Z,21.15
2022-08-30T17:09:45.184Z,21.11
2022-08-30T17:16:30.773Z,21.45
2022-08-30T17:23:19.505Z,21.37
2022-08-30T17:30:08.771Z,21.55
2022-08-30T17:36:57.241Z,21.17
2022-08-30T17:43:45.516Z,21.19
2022-08-30T17:50:33.250Z,21.27
2022-08-30T17:57:19.224Z,21.35
2022-08-30T18:04:08.472Z,21.72
2022-08-30T18:10:54.023Z,21.53
2022-08-30T18:17:41.245Z,21.75
2022-08-30T18:24:29.897Z,21.94
2022-08-30T18:31:15.606Z,22.29
2022-08-30T18:38:01.812Z,22.32
2022-08-30T18:44:50.148Z,22.73
2022-08-30T18:51:35.701Z,22.39
2022-08-30T18:58:21.958Z,22.80
2022-08-30T19:05:12.041Z,23.04
2022-08-30T19:11:58.075Z,23.34
2022-08-30T19:18:44.100Z,23.08
2022-08-30T19:25:33.672Z,23.36
2022-08-30T19:32:19.241Z,23.87
2022-08-30T19:39:05.117Z,24.25
2022-08-30T19:46:00.858Z,24.51
2022-08-30T19:52:53.730Z,24.16
2022-08-30T19:59:44.108Z,24.47
2022-08-30T20:06:33.666Z,25.00
2022-08-30T20:13:21.629Z,25.15
2022-08-30T20:20:13.100Z,24.85
2022-08-30T20:27:03.555Z,25.40
2022-08-30T20:33:49.062Z,25.46
2022-08-30T20:40:34.851Z,25.51
2022-08-30T20:47:23.668Z,25.73
2022-08-30T20:54:09.930Z,25.79
2022-08-30T21:00:57.121Z,26.03
2022-08-30T21:07:47.208Z,26.02
2022-08-30T21:14:33.267Z,26.42
2022-08-30T21:21:22.646Z,26.77
2022-08-30T21:28:11.330Z,26.73
2022-08-30T21:35:09.361Z,26.42
2022-08-30T21:41:59.599Z,27.09
2022-08-30T21:48:49.105Z,27.32
2022-08-30T21:55:34.656Z,27.18
2022-08-30T22:02:20.497Z,27.56
2022-08-30T22:09:13.583Z,27.03
2022-08-30T22:15:59.101Z,27.28
2022-08-30T22:22:44.732Z,27.51
2022-08-30T22:29:33.051Z,27.60
2022-08-30T22:36:21.926Z,27.98
2022-08-30T22:43:07.625Z,27.98
2022-08-30T22:49:55.820Z,27.92
2022-08-30T22:56:42.868Z,28.30
2022-08-30T23:03:28.415Z,28.34
2022-08-30T23:10:17.842Z,28.66
2022-08-30T23:17:03.484Z,28.21
2022-08-30T23:24:01.777Z,28.50
2022-08-30T23:31:02.325Z,28.36
2022-08-30T23:38:00.277Z,28.64
2022-08-30T23:44:58.253Z,28.88
2022-08-30T23:51:58.875Z,28.49
2022-08-30T23:58:56.904Z,28.59
